Time;durP1;ratioP1;P1;durP2;ratioP2;P2;SDS_P1;SDS_P2;PMS_P1;PMS_P2;Temp;Humidity;BMP_temperature;BMP_pressure;BME280_temperature;BME280_humidity;BME280_pressure;Samples;Min_cycle;Max_cycle;Signal;HPM_P1;HPM_P2
2022/08/07 00:01:16;;;;;;;4.80;4.30;;;14.60;99.90;;;;;;5065221;28;20216;-73
2022/08/07 00:04:04;;;;;;;4.27;3.73;;;14.50;99.90;;;;;;5065072;28;20655;-74
2022/08/07 00:06:31;;;;;;;4.70;3.67;;;14.50;99.90;;;;;;5065368;28;20235;-74
2022/08/07 00:09:00;;;;;;;5.17;3.90;;;14.50;99.90;;;;;;5065737;28;20304;-73
2022/08/07 00:11:43;;;;;;;4.77;3.53;;;14.50;99.90;;;;;;5066995;28;20197;-73
2022/08/07 00:14:25;;;;;;;6.27;3.93;;;14.40;99.90;;;;;;5066604;28;20205;-74
2022/08/07 00:16:58;;;;;;;5.17;3.70;;;14.40;99.90;;;;;;5063454;28;20211;-73
2022/08/07 00:19:27;;;;;;;7.83;4.03;;;14.40;99.90;;;;;;5066206;28;20864;-73
2022/08/07 00:22:14;;;;;;;4.10;3.70;;;14.40;99.90;;;;;;5067245;28;20210;-73
2022/08/07 00:25:05;;;;;;;5.37;3.80;;;14.30;99.90;;;;;;5064357;28;20283;-73
2022/08/07 00:27:41;;;;;;;6.47;3.70;;;14.30;99.90;;;;;;5064997;28;20204;-73
2022/08/07 00:30:22;;;;;;;5.93;3.60;;;14.30;99.90;;;;;;5066526;28;20228;-73
2022/08/07 00:32:55;;;;;;;7.97;4.40;;;14.30;99.90;;;;;;5067801;28;20220;-72
2022/08/07 00:35:22;;;;;;;6.80;4.30;;;14.20;99.90;;;;;;5066489;28;20205;-73
2022/08/07 00:37:50;;;;;;;6.10;4.30;;;14.20;99.90;;;;;;5066810;28;20216;-73
2022/08/07 00:40:17;;;;;;;4.17;3.77;;;14.20;99.90;;;;;;5067635;28;20208;-73
2022/08/07 00:43:04;;;;;;;5.30;3.60;;;14.10;99.90;;;;;;5066543;28;20236;-72
2022/08/07 00:45:37;;;;;;;4.90;3.80;;;14.10;99.90;;;;;;5062679;28;20199;-72
2022/08/07 00:48:05;;;;;;;5.30;3.90;;;14.10;99.90;;;;;;5065814;28;20237;-73
2022/08/07 00:50:37;;;;;;;5.23;3.83;;;14.10;99.90;;;;;;5066077;28;20197;-73
2022/08/07 00:53:18;;;;;;;5.40;4.00;;;14.00;99.90;;;;;;5064085;28;20292;-74
2022/08/07 00:55:46;;;;;;;4.47;4.07;;;14.00;99.90;;;;;;5068342;28;20220;-74
2022/08/07 00:58:29;;;;;;;5.43;3.77;;;13.90;99.90;;;;;;5065071;28;20197;-73
2022/08/07 01:00:57;;;;;;;7.57;4.13;;;13.90;99.90;;;;;;5060963;28;20227;-73
2022/08/07 01:03:24;;;;;;;6.53;3.80;;;13.90;99.90;;;;;;5064598;28;20246;-75
2022/08/07 01:06:11;;;;;;;6.70;3.77;;;13.80;99.90;;;;;;5063821;28;20203;-74
2022/08/07 01:08:39;;;;;;;5.17;3.63;;;13.80;99.90;;;;;;5067893;28;20238;-74
2022/08/07 01:11:09;;;;;;;6.60;3.83;;;13.80;99.90;;;;;;5064059;28;20204;-73
2022/08/07 01:13:56;;;;;;;6.57;4.07;;;13.70;99.90;;;;;;5063964;28;20287;-73
2022/08/07 01:16:23;;;;;;;5.70;3.97;;;13.70;99.90;;;;;;5064338;28;20363;-73
2022/08/07 01:18:57;;;;;;;4.50;3.87;;;13.70;99.90;;;;;;5063609;28;20251;-74
2022/08/07 01:21:25;;;;;;;6.37;5.07;;;13.60;99.90;;;;;;5066091;28;20208;-74
2022/08/07 01:23:56;;;;;;;4.90;4.40;;;13.60;99.90;;;;;;5063096;28;20567;-73
2022/08/07 01:26:23;;;;;;;5.87;3.60;;;13.60;99.90;;;;;;5064416;28;20253;-74
2022/08/07 01:28:53;;;;;;;7.20;4.30;;;13.50;99.90;;;;;;5062287;28;20231;-75
2022/08/07 01:31:26;;;;;;;4.63;3.80;;;13.50;99.90;;;;;;5063500;28;20258;-73
2022/08/07 01:34:07;;;;;;;5.57;4.00;;;13.50;99.90;;;;;;5065135;28;20228;-74
2022/08/07 01:36:35;;;;;;;7.37;4.30;;;13.40;99.90;;;;;;5064849;28;20262;-74
2022/08/07 01:39:03;;;;;;;6.33;4.03;;;13.40;99.90;;;;;;5065514;28;20205;-73
2022/08/07 01:41:37;;;;;;;4.53;3.93;;;13.40;99.90;;;;;;5063051;28;20192;-74
2022/08/07 01:44:06;;;;;;;6.00;4.03;;;13.40;99.90;;;;;;5060528;28;20609;-73
2022/08/07 01:46:33;;;;;;;6.47;4.17;;;13.30;99.90;;;;;;5066505;28;20731;-73
2022/08/07 01:49:01;;;;;;;5.83;4.67;;;13.30;99.90;;;;;;5065628;28;20239;-76
2022/08/07 01:51:29;;;;;;;10.30;4.87;;;13.30;99.90;;;;;;5065048;28;20573;-73
2022/08/07 01:54:19;;;;;;;6.90;4.60;;;13.30;99.90;;;;;;5064545;28;20209;-74
2022/08/07 01:57:05;;;;;;;8.57;4.43;;;13.30;99.90;;;;;;5049500;28;20210;-74
2022/08/07 01:59:49;;;;;;;7.17;4.63;;;13.20;99.90;;;;;;5062592;28;20232;-76
2022/08/07 02:02:26;;;;;;;8.13;4.30;;;13.20;99.90;;;;;;5064630;28;20251;-73
2022/08/07 02:05:19;;;;;;;7.33;4.90;;;13.20;99.90;;;;;;5062888;28;20270;-73
2022/08/07 02:08:09;;;;;;;8.17;4.57;;;13.10;99.90;;;;;;5063682;28;20226;-73
2022/08/07 02:10:42;;;;;;;8.07;5.30;;;13.10;99.90;;;;;;5061799;28;20274;-75
2022/08/07 02:13:15;;;;;;;6.97;4.40;;;13.10;99.90;;;;;;5062803;28;20664;-74
2022/08/07 02:15:44;;;;;;;7.57;4.63;;;13.10;99.90;;;;;;5066535;28;20202;-73
2022/08/07 02:18:12;;;;;;;7.67;5.17;;;13.00;99.90;;;;;;5062186;28;20268;-74
2022/08/07 02:20:42;;;;;;;6.60;4.73;;;13.00;99.90;;;;;;5062648;28;20627;-72
2022/08/07 02:23:15;;;;;;;9.10;5.33;;;13.00;99.90;;;;;;5061474;28;20239;-73
2022/08/07 02:25:52;;;;;;;8.93;5.40;;;13.00;99.90;;;;;;5064107;28;20230;-74
2022/08/07 02:28:39;;;;;;;7.70;5.30;;;12.90;99.90;;;;;;5062894;28;20212;-73
2022/08/07 02:31:08;;;;;;;7.33;5.57;;;12.90;99.90;;;;;;5065711;28;20609;-73
2022/08/07 02:33:56;;;;;;;7.77;4.80;;;12.90;99.90;;;;;;5066419;28;20271;-73
2022/08/07 02:36:31;;;;;;;6.40;4.90;;;12.90;99.90;;;;;;5063028;28;20241;-75
2022/08/07 02:39:02;;;;;;;7.30;5.60;;;12.80;99.90;;;;;;5062688;28;20239;-73
2022/08/07 02:41:44;;;;;;;10.70;5.83;;;12.80;99.90;;;;;;5066926;28;20662;-73
2022/08/07 02:44:17;;;;;;;7.13;5.47;;;12.90;99.90;;;;;;5069286;28;20235;-73
2022/08/07 02:46:49;;;;;;;7.53;5.57;;;12.80;99.90;;;;;;5068700;28;20214;-74
2022/08/07 02:49:19;;;;;;;7.37;4.83;;;12.80;99.90;;;;;;5070646;28;20322;-74
2022/08/07 02:52:09;;;;;;;7.60;4.93;;;12.80;99.90;;;;;;5069364;28;20212;-73
2022/08/07 02:54:40;;;;;;;7.63;4.97;;;12.80;99.90;;;;;;5067179;28;20264;-73
2022/08/07 02:57:12;;;;;;;7.23;5.30;;;12.80;99.90;;;;;;5068433;28;20229;-74
2022/08/07 02:59:47;;;;;;;7.20;5.43;;;12.80;99.90;;;;;;5065719;28;20202;-74
2022/08/07 03:02:21;;;;;;;7.80;5.47;;;12.70;99.90;;;;;;5068261;28;20249;-74
2022/08/07 03:04:50;;;;;;;8.63;5.30;;;12.70;99.90;;;;;;5067580;28;20750;-74
2022/08/07 03:07:19;;;;;;;7.93;5.50;;;12.70;99.90;;;;;;5070106;28;20207;-74
2022/08/07 03:10:07;;;;;;;9.13;5.27;;;12.70;99.90;;;;;;5067624;28;20215;-74
2022/08/07 03:12:35;;;;;;;10.17;6.30;;;12.60;99.90;;;;;;5065527;28;20231;-73
2022/08/07 03:15:04;;;;;;;7.30;5.40;;;12.60;99.90;;;;;;5067660;28;20203;-73
2022/08/07 03:17:36;;;;;;;7.27;5.50;;;12.60;99.90;;;;;;5064127;28;20280;-73
2022/08/07 03:20:20;;;;;;;8.93;6.30;;;12.60;99.90;;;;;;5065121;28;20297;-73
2022/08/07 03:22:49;;;;;;;7.90;5.70;;;12.60;99.90;;;;;;5066612;28;20277;-74
2022/08/07 03:25:17;;;;;;;8.27;5.70;;;12.50;99.90;;;;;;5069439;28;20329;-75
2022/08/07 03:27:48;;;;;;;11.17;5.57;;;12.50;99.90;;;;;;5057543;28;20554;-73
2022/08/07 03:30:36;;;;;;;8.13;5.77;;;12.50;99.90;;;;;;5065638;28;20208;-73
2022/08/07 03:33:03;;;;;;;7.70;5.23;;;12.50;99.90;;;;;;5067575;28;20215;-73
2022/08/07 03:35:36;;;;;;;8.90;5.83;;;12.50;99.90;;;;;;5065099;28;20293;-73
2022/08/07 03:38:16;;;;;;;7.33;4.90;;;12.50;99.90;;;;;;5067852;28;20210;-76
2022/08/07 03:40:50;;;;;;;10.03;6.43;;;12.50;99.90;;;;;;5066602;28;20245;-72
2022/08/07 03:43:24;;;;;;;13.90;7.17;;;12.40;99.90;;;;;;5068471;28;20555;-74
2022/08/07 03:45:58;;;;;;;9.20;6.27;;;12.40;99.90;;;;;;5064585;28;20249;-73
2022/08/07 03:48:30;;;;;;;11.13;6.23;;;12.30;99.90;;;;;;5067743;28;20229;-73
2022/08/07 03:50:57;;;;;;;10.20;6.77;;;12.30;99.90;;;;;;5064156;28;20697;-73
2022/08/07 03:53:25;;;;;;;8.53;5.77;;;12.30;99.90;;;;;;5067425;28;20207;-74
2022/08/07 03:56:17;;;;;;;8.37;5.53;;;12.30;99.90;;;;;;5065760;28;20199;-73
2022/08/07 03:59:00;;;;;;;8.33;6.10;;;12.20;99.90;;;;;;5066233;28;20223;-73
2022/08/07 04:01:40;;;;;;;12.50;6.43;;;12.20;99.90;;;;;;5063856;28;20203;-73
2022/08/07 04:04:14;;;;;;;8.73;6.40;;;12.20;99.90;;;;;;5065598;28;20223;-73
2022/08/07 04:06:44;;;;;;;9.87;6.60;;;12.20;99.90;;;;;;5066274;28;20252;-73
2022/08/07 04:09:11;;;;;;;8.13;5.77;;;12.20;99.90;;;;;;5060668;28;20238;-73
2022/08/07 04:11:43;;;;;;;7.77;5.97;;;12.20;99.90;;;;;;5060948;28;20203;-73
2022/08/07 04:14:31;;;;;;;7.67;6.00;;;12.20;99.90;;;;;;5064202;28;20242;-73
2022/08/07 04:17:04;;;;;;;10.63;6.57;;;12.20;99.90;;;;;;5065517;28;20782;-73
2022/08/07 04:19:49;;;;;;;10.10;5.77;;;12.20;99.90;;;;;;5063486;28;20214;-74
2022/08/07 04:22:23;;;;;;;12.07;7.00;;;12.20;99.90;;;;;;5067361;28;20203;-74
2022/08/07 04:24:57;;;;;;;10.10;6.90;;;12.20;99.90;;;;;;5065799;28;20234;-74
2022/08/07 04:27:27;;;;;;;9.83;6.63;;;12.20;99.90;;;;;;5065304;28;20246;-73
2022/08/07 04:30:02;;;;;;;10.00;6.57;;;12.20;99.90;;;;;;5064270;28;20205;-73
2022/08/07 04:32:32;;;;;;;9.27;6.37;;;12.20;99.90;;;;;;5067189;28;20243;-72
2022/08/07 04:35:03;;;;;;;9.40;6.47;;;12.20;99.90;;;;;;5066427;28;20210;-72
2022/08/07 04:37:33;;;;;;;9.80;6.40;;;12.40;99.90;;;;;;5063060;28;20279;-73
2022/08/07 04:40:20;;;;;;;12.03;6.93;;;12.30;99.90;;;;;;5066728;28;20202;-73
2022/08/07 04:42:46;;;;;;;11.30;7.13;;;12.30;99.90;;;;;;5064215;28;20203;-74
2022/08/07 04:45:18;;;;;;;9.20;6.53;;;12.50;99.90;;;;;;5066512;28;20253;-74
2022/08/07 04:48:11;;;;;;;8.90;6.43;;;12.30;99.90;;;;;;5053270;28;20235;-74
2022/08/07 04:50:49;;;;;;;9.80;6.53;;;12.40;99.90;;;;;;5063110;28;20241;-73
2022/08/07 04:53:33;;;;;;;9.00;6.70;;;12.40;99.90;;;;;;5056678;28;20639;-73
2022/08/07 04:56:25;;;;;;;10.33;6.53;;;12.50;99.90;;;;;;5061700;28;20208;-75
2022/08/07 04:59:22;;;;;;;9.90;7.10;;;12.50;99.90;;;;;;5056961;28;20202;-74
2022/08/07 05:02:22;;;;;;;9.60;6.37;;;12.50;99.90;;;;;;5062790;28;20268;-74
2022/08/07 05:05:05;;;;;;;11.93;8.23;;;12.60;99.90;;;;;;5062938;28;20269;-74
2022/08/07 05:07:59;;;;;;;11.33;7.33;;;12.60;99.90;;;;;;5063177;28;20593;-77
2022/08/07 05:10:39;;;;;;;11.93;7.53;;;12.70;99.90;;;;;;5061077;28;20263;-74
2022/08/07 05:13:13;;;;;;;12.17;7.77;;;12.70;99.90;;;;;;5061144;28;20209;-73
2022/08/07 05:16:02;;;;;;;10.70;7.03;;;12.80;99.90;;;;;;5059199;28;20547;-74
2022/08/07 05:18:34;;;;;;;11.97;7.67;;;12.80;99.90;;;;;;5061455;28;20687;-73
2022/08/07 05:21:08;;;;;;;13.53;7.87;;;12.80;99.90;;;;;;5064607;28;20254;-75
2022/08/07 05:23:40;;;;;;;14.33;7.00;;;12.90;99.90;;;;;;5060288;28;20292;-75
2022/08/07 05:26:15;;;;;;;12.30;7.70;;;13.00;99.90;;;;;;5062625;28;20234;-75
2022/08/07 05:28:56;;;;;;;15.27;8.20;;;13.00;99.90;;;;;;5060325;28;20211;-73
2022/08/07 05:31:27;;;;;;;12.20;8.20;;;13.10;99.90;;;;;;5058000;28;20258;-73
2022/08/07 05:34:01;;;;;;;14.27;8.00;;;13.10;99.90;;;;;;5060908;28;20227;-73
2022/08/07 05:36:39;;;;;;;11.27;7.97;;;13.20;99.90;;;;;;5062581;28;20219;-75
2022/08/07 05:39:07;;;;;;;12.20;7.63;;;13.30;99.90;;;;;;5056792;28;20262;-74
2022/08/07 05:41:54;;;;;;;13.17;8.53;;;13.30;99.90;;;;;;5061559;28;20678;-73
2022/08/07 05:44:34;;;;;;;14.63;8.97;;;13.40;99.90;;;;;;5058947;28;20278;-73
2022/08/07 05:47:01;;;;;;;12.43;8.20;;;13.50;99.90;;;;;;5060440;28;20281;-73
2022/08/07 05:49:48;;;;;;;14.20;8.90;;;13.50;99.90;;;;;;5063328;28;20714;-73
2022/08/07 05:52:19;;;;;;;15.97;8.33;;;13.60;99.90;;;;;;5057963;28;20231;-74
2022/08/07 05:54:58;;;;;;;15.33;9.70;;;13.70;99.90;;;;;;5060803;28;20214;-74
2022/08/07 05:57:37;;;;;;;16.50;8.90;;;13.80;99.90;;;;;;5059725;28;20223;-75
2022/08/07 06:00:10;;;;;;;17.17;10.53;;;13.80;99.90;;;;;;5062599;28;20208;-74
2022/08/07 06:02:47;;;;;;;14.87;8.47;;;14.10;99.90;;;;;;5060131;28;20224;-74
2022/08/07 06:05:14;;;;;;;15.40;8.50;;;14.80;99.90;;;;;;5062341;28;20301;-74
2022/08/07 06:07:42;;;;;;;12.23;8.70;;;16.10;99.90;;;;;;5062511;28;20212;-73
2022/08/07 06:10:29;;;;;;;12.75;8.60;;;17.40;99.90;;;;;;5060857;28;20240;-74
2022/08/07 06:12:56;;;;;;;10.85;8.20;;;19.00;99.90;;;;;;5063048;28;20258;-74
2022/08/07 06:15:26;;;;;;;14.60;9.30;;;20.20;99.90;;;;;;5056997;28;20204;-76
2022/08/07 06:18:10;;;;;;;12.55;8.95;;;21.20;99.90;;;;;;5061901;28;20224;-75
2022/08/07 06:20:40;;;;;;;14.80;8.85;;;22.20;99.90;;;;;;5060819;28;20223;-75
2022/08/07 06:23:28;;;;;;;13.30;9.35;;;23.10;99.90;;;;;;5062597;28;20287;-74
2022/08/07 06:26:15;;;;;;;12.45;9.07;;;24.10;99.90;;;;;;5060762;28;20684;-74
2022/08/07 06:28:53;;;;;;;11.23;8.65;;;24.90;99.90;;;;;;5060817;28;20204;-74
2022/08/07 06:31:20;;;;;;;11.80;9.52;;;25.60;99.90;;;;;;5056133;28;20340;-75
2022/08/07 06:34:07;;;;;;;14.05;9.30;;;26.10;99.90;;;;;;5060599;28;20216;-75
2022/08/07 06:36:35;;;;;;;12.88;9.45;;;26.80;99.90;;;;;;5063806;28;20505;-75
2022/08/07 06:39:02;;;;;;;13.45;10.20;;;27.20;99.90;;;;;;5058697;28;20270;-75
2022/08/07 06:42:03;;;;;;;13.25;9.60;;;27.60;99.90;;;;;;5057302;28;20669;-74
2022/08/07 06:44:31;;;;;;;15.93;9.90;;;28.10;99.70;;;;;;5062894;28;20216;-74
2022/08/07 06:47:03;;;;;;;12.43;9.95;;;28.40;98.50;;;;;;5059217;28;20680;-73
2022/08/07 06:49:42;;;;;;;18.20;10.23;;;28.80;97.20;;;;;;5061051;28;20746;-74
2022/08/07 06:52:30;;;;;;;11.23;9.23;;;29.30;96.20;;;;;;5061296;28;20548;-75
2022/08/07 06:55:12;;;;;;;13.07;9.63;;;29.50;94.30;;;;;;5046689;28;20285;-74
2022/08/07 06:58:03;;;;;;;11.77;9.55;;;29.60;93.80;;;;;;5058035;28;20291;-75
2022/08/07 07:00:37;;;;;;;11.50;9.35;;;29.80;93.10;;;;;;5056187;28;20725;-75
2022/08/07 07:03:09;;;;;;;14.30;9.73;;;30.10;92.90;;;;;;5054744;28;20266;-76
2022/08/07 07:05:40;;;;;;;10.60;9.13;;;30.20;91.70;;;;;;5055360;28;20815;-75
2022/08/07 07:08:29;;;;;;;12.32;8.80;;;29.70;91.10;;;;;;5062717;28;20209;-74
2022/08/07 07:11:00;;;;;;;12.43;9.75;;;29.30;91.20;;;;;;5063069;28;20282;-76
2022/08/07 07:13:48;;;;;;;11.07;8.57;;;29.20;90.80;;;;;;5062249;28;20205;-74
2022/08/07 07:16:32;;;;;;;12.25;9.20;;;29.30;90.60;;;;;;5060609;28;20291;-76
2022/08/07 07:19:05;;;;;;;12.55;8.65;;;29.50;90.30;;;;;;5063474;28;20222;-74
2022/08/07 07:21:54;;;;;;;10.20;8.38;;;29.50;90.10;;;;;;5062047;28;20208;-75
2022/08/07 07:24:39;;;;;;;11.68;9.07;;;29.60;90.60;;;;;;5061970;28;20319;-75
2022/08/07 07:27:26;;;;;;;10.63;8.35;;;29.90;90.70;;;;;;5066030;28;20204;-76
2022/08/07 07:30:13;;;;;;;9.48;8.48;;;30.10;89.60;;;;;;5064681;28;20236;-75
2022/08/07 07:33:02;;;;;;;12.07;9.25;;;30.30;88.40;;;;;;5059993;28;20672;-75
2022/08/07 07:35:32;;;;;;;13.32;10.45;;;30.30;87.40;;;;;;5060973;28;20204;-75
2022/08/07 07:38:22;;;;;;;11.57;8.98;;;30.30;86.60;;;;;;5060977;28;20409;-74
2022/08/07 07:40:50;;;;;;;12.88;9.70;;;30.20;87.30;;;;;;5065076;28;20208;-75
2022/08/07 07:43:20;;;;;;;13.38;9.40;;;30.10;86.40;;;;;;5069478;28;20197;-75
2022/08/07 07:46:08;;;;;;;11.60;9.30;;;30.00;86.30;;;;;;5063162;28;20232;-74
2022/08/07 07:48:57;;;;;;;12.52;8.43;;;30.00;87.10;;;;;;5065726;28;20278;-74
2022/08/07 07:51:35;;;;;;;9.20;7.53;;;30.00;86.70;;;;;;5069259;28;20199;-74
2022/08/07 07:54:23;;;;;;;10.40;8.35;;;29.90;85.60;;;;;;5068361;28;20203;-75
2022/08/07 07:56:53;;;;;;;11.32;8.00;;;29.90;85.30;;;;;;5066372;28;20208;-76
2022/08/07 07:59:24;;;;;;;11.10;8.40;;;29.90;85.80;;;;;;5066734;28;20291;-75
2022/08/07 08:02:14;;;;;;;9.95;7.85;;;29.70;85.30;;;;;;5065423;28;20546;-75
2022/08/07 08:05:03;;;;;;;9.57;7.07;;;29.80;84.90;;;;;;5063352;28;20235;-75
2022/08/07 08:07:32;;;;;;;10.85;6.30;;;29.90;83.60;;;;;;5064813;28;20682;-75
2022/08/07 08:10:09;;;;;;;5.72;5.10;;;29.90;83.10;;;;;;5065081;28;20212;-75
2022/08/07 08:12:59;;;;;;;9.43;6.20;;;30.00;82.00;;;;;;5062230;28;20599;-76
2022/08/07 08:15:33;;;;;;;6.78;5.90;;;30.10;81.20;;;;;;5066362;28;20208;-76
2022/08/07 08:18:23;;;;;;;5.78;4.40;;;30.20;81.50;;;;;;5063936;28;20609;-77
2022/08/07 08:20:51;;;;;;;8.05;6.22;;;30.20;81.10;;;;;;5065627;28;20749;-74
2022/08/07 08:28:54;;;;;;;5.20;4.70;;;30.20;79.70;;;;;;5065880;28;20266;-77
2022/08/07 08:31:28;;;;;;;7.53;5.55;;;30.20;79.70;;;;;;5065686;28;20576;-74
2022/08/07 08:34:18;;;;;;;6.40;5.32;;;30.40;79.00;;;;;;5062234;28;20637;-75
2022/08/07 08:36:56;;;;;;;5.95;5.20;;;30.50;79.30;;;;;;5064205;28;20238;-74
2022/08/07 08:39:26;;;;;;;5.03;4.50;;;30.50;78.60;;;;;;5066165;28;20204;-75
2022/08/07 08:42:32;;;;;;;5.35;4.57;;;30.40;78.50;;;;;;5063897;28;20202;-75
2022/08/07 08:45:30;;;;;;;6.43;4.38;;;30.30;76.30;;;;;;5062615;28;20696;-77
2022/08/07 08:48:35;;;;;;;7.93;4.95;;;30.00;77.90;;;;;;5065580;28;21104;-79
2022/08/07 08:51:06;;;;;;;7.05;4.57;;;30.10;78.50;;;;;;5066362;28;21006;-79
2022/08/07 08:53:56;;;;;;;6.35;4.10;;;30.20;78.20;;;;;;5065196;28;20318;-77
2022/08/07 08:56:31;;;;;;;6.22;4.18;;;30.10;78.10;;;;;;5066157;28;20228;-78
2022/08/07 08:59:11;;;;;;;8.20;4.40;;;29.90;77.90;;;;;;5064928;28;20212;-76
2022/08/07 09:01:50;;;;;;;17.15;5.25;;;29.60;79.10;;;;;;5065047;28;20255;-75
2022/08/07 09:04:29;;;;;;;4.78;3.65;;;29.50;79.80;;;;;;5064998;28;20257;-80
2022/08/07 09:07:07;;;;;;;10.77;3.90;;;29.60;79.30;;;;;;5064034;28;20235;-77
2022/08/07 09:10:03;;;;;;;6.65;4.70;;;29.40;79.90;;;;;;5064529;28;20759;-77
2022/08/07 09:12:39;;;;;;;5.00;3.83;;;29.50;77.70;;;;;;5064056;28;20204;-76
2022/08/07 09:15:30;;;;;;;7.30;3.67;;;29.40;78.50;;;;;;5064937;28;20711;-77
2022/08/07 09:18:51;;;;;;;7.63;3.92;;;29.40;77.60;;;;;;5062834;28;20231;-76
2022/08/07 09:21:29;;;;;;;5.70;3.85;;;29.50;79.20;;;;;;5065596;28;20197;-76
2022/08/07 09:24:57;;;;;;;5.13;3.88;;;29.30;77.90;;;;;;5064527;28;20274;-78
2022/08/07 09:27:50;;;;;;;4.53;3.42;;;29.10;77.00;;;;;;5045418;28;20938;-76
2022/08/07 09:30:36;;;;;;;7.38;3.85;;;28.90;78.60;;;;;;5061777;28;20203;-75
2022/08/07 09:33:32;;;;;;;5.15;3.42;;;28.90;79.00;;;;;;5062101;28;20212;-77
2022/08/07 09:36:30;;;;;;;4.90;3.50;;;29.10;77.80;;;;;;5065565;28;20241;-78
2022/08/07 09:39:30;;;;;;;6.10;2.80;;;29.10;79.80;;;;;;5062535;28;20208;-76
2022/08/07 09:42:38;;;;;;;4.53;3.25;;;29.30;77.40;;;;;;5052448;28;20329;-78
2022/08/07 09:45:11;;;;;;;4.03;3.58;;;29.20;79.10;;;;;;5062730;28;20228;-77
2022/08/07 09:48:19;;;;;;;4.38;3.28;;;28.90;78.60;;;;;;5063144;28;20226;-79
2022/08/07 09:51:30;;;;;;;6.40;3.65;;;28.90;78.90;;;;;;5065045;28;20232;-79
2022/08/07 09:54:23;;;;;;;11.70;4.45;;;28.80;80.00;;;;;;5062997;28;20753;-75
2022/08/07 09:57:25;;;;;;;8.73;3.08;;;28.70;80.00;;;;;;5060687;28;20669;-75
2022/08/07 10:00:06;;;;;;;4.40;3.40;;;28.70;78.90;;;;;;5066667;28;20210;-76
2022/08/07 10:02:55;;;;;;;4.85;3.30;;;28.70;77.40;;;;;;5060604;28;20248;-74
2022/08/07 10:05:34;;;;;;;4.72;3.10;;;28.70;79.30;;;;;;5060348;28;20224;-75
2022/08/07 10:08:36;;;;;;;4.70;3.50;;;28.60;77.30;;;;;;5063753;28;20648;-75
2022/08/07 10:11:48;;;;;;;4.43;3.47;;;28.60;78.40;;;;;;5063543;28;20299;-75
2022/08/07 10:15:08;;;;;;;4.50;3.20;;;28.50;78.10;;;;;;5063739;28;20201;-75
2022/08/07 10:18:21;;;;;;;4.82;3.05;;;28.50;78.90;;;;;;5064108;28;20216;-75
2022/08/07 10:21:12;;;;;;;4.07;3.58;;;28.60;77.40;;;;;;5055657;28;20200;-75
2022/08/07 10:24:31;;;;;;;4.10;3.20;;;28.60;77.70;;;;;;5058098;28;20290;-76
2022/08/07 10:27:39;;;;;;;5.15;3.28;;;28.40;76.70;;;;;;5054457;28;20259;-76
2022/08/07 10:30:32;;;;;;;4.28;3.65;;;28.00;76.80;;;;;;5061803;28;20201;-75
2022/08/07 10:33:39;;;;;;;4.53;3.25;;;27.70;78.90;;;;;;5061813;28;20297;-76
2022/08/07 10:36:37;;;;;;;4.18;3.38;;;27.60;80.60;;;;;;5036498;28;20215;-77
2022/08/07 10:39:25;;;;;;;3.88;3.38;;;27.80;79.20;;;;;;5058682;28;20224;-75
2022/08/07 10:42:24;;;;;;;6.60;3.20;;;27.90;78.40;;;;;;5061776;28;20224;-76
2022/08/07 10:45:18;;;;;;;4.75;3.22;;;28.20;80.20;;;;;;5059134;28;20208;-75
2022/08/07 10:48:23;;;;;;;4.22;3.05;;;28.20;79.20;;;;;;5059826;28;20235;-76
2022/08/07 10:51:26;;;;;;;4.10;3.17;;;28.20;80.40;;;;;;5060896;28;20600;-76
2022/08/07 10:54:36;;;;;;;4.50;3.30;;;28.00;78.90;;;;;;5062033;28;20205;-76
2022/08/07 10:57:18;;;;;;;3.47;3.10;;;27.70;79.40;;;;;;5058439;28;20201;-76
2022/08/07 11:00:05;;;;;;;5.78;3.67;;;27.70;78.50;;;;;;5059531;28;20629;-76
2022/08/07 11:02:38;;;;;;;5.50;3.25;;;27.80;77.90;;;;;;5062371;28;20205;-76
2022/08/07 11:05:18;;;;;;;5.30;3.13;;;27.90;77.00;;;;;;5062174;28;20236;-76
2022/08/07 11:08:19;;;;;;;3.38;3.05;;;28.10;76.90;;;;;;5064224;28;20232;-75
2022/08/07 11:11:05;;;;;;;3.72;3.10;;;28.20;76.90;;;;;;5062712;28;20672;-75
2022/08/07 11:13:38;;;;;;;4.35;3.30;;;28.40;77.20;;;;;;5068455;28;20656;-75
2022/08/07 11:16:30;;;;;;;5.80;3.10;;;28.50;76.70;;;;;;5063024;28;20197;-76
2022/08/07 11:19:37;;;;;;;3.67;3.15;;;28.70;75.90;;;;;;5059576;28;20633;-75
2022/08/07 11:22:23;;;;;;;3.88;3.55;;;28.90;75.80;;;;;;5061368;28;20270;-75
2022/08/07 11:25:10;;;;;;;5.63;3.30;;;28.90;76.50;;;;;;5064199;28;20220;-75
2022/08/07 11:28:14;;;;;;;3.90;2.60;;;28.90;77.40;;;;;;5061288;28;20266;-75
2022/08/07 11:31:08;;;;;;;3.13;2.83;;;28.90;76.30;;;;;;5060930;28;20233;-76
2022/08/07 11:34:01;;;;;;;6.28;3.33;;;28.90;77.40;;;;;;5066473;28;20258;-76
2022/08/07 11:36:56;;;;;;;3.90;3.15;;;28.80;76.70;;;;;;5057206;28;20571;-76
2022/08/07 11:39:53;;;;;;;5.80;3.28;;;28.50;76.50;;;;;;5062510;28;20543;-74
2022/08/07 11:42:45;;;;;;;4.45;3.25;;;28.10;76.70;;;;;;5065597;28;20203;-77
2022/08/07 11:45:50;;;;;;;4.80;3.70;;;27.40;79.90;;;;;;5062131;28;20197;-76
2022/08/07 11:48:30;;;;;;;5.03;3.20;;;27.10;79.30;;;;;;5065117;28;20295;-77
2022/08/07 11:51:05;;;;;;;4.15;2.70;;;26.90;80.60;;;;;;5067161;28;20272;-76
2022/08/07 11:53:41;;;;;;;3.05;2.75;;;27.00;79.20;;;;;;5064605;28;20662;-75
2022/08/07 11:56:44;;;;;;;3.03;2.47;;;27.20;78.00;;;;;;5063737;28;20193;-76
2022/08/07 11:59:46;;;;;;;3.38;2.75;;;27.40;77.70;;;;;;5064710;28;20236;-76
2022/08/07 12:03:19;;;;;;;5.00;3.15;;;27.60;76.80;;;;;;5065844;28;20216;-77
2022/08/07 12:06:28;;;;;;;2.90;2.60;;;27.80;76.00;;;;;;5060055;28;20232;-77
2022/08/07 12:09:18;;;;;;;2.92;2.53;;;28.00;77.30;;;;;;5069275;28;20197;-77
2022/08/07 12:11:55;;;;;;;3.72;2.53;;;28.20;77.30;;;;;;5066367;28;20299;-76
2022/08/07 12:15:21;;;;;;;3.08;2.72;;;28.30;76.80;;;;;;5068295;28;20304;-77
2022/08/07 12:18:20;;;;;;;3.85;2.72;;;28.20;77.10;;;;;;5022297;28;20589;-76
2022/08/07 12:21:16;;;;;;;3.67;2.50;;;28.00;78.40;;;;;;5021997;28;20206;-76
2022/08/07 12:24:15;;;;;;;4.90;3.65;;;27.80;78.10;;;;;;5064011;28;20200;-76
2022/08/07 12:27:15;;;;;;;4.60;2.30;;;27.40;78.70;;;;;;5065310;28;20228;-78
2022/08/07 12:29:50;;;;;;;4.00;2.80;;;27.10;77.50;;;;;;5065248;28;20200;-79
2022/08/07 12:32:29;;;;;;;4.97;2.97;;;27.10;77.30;;;;;;5065272;28;20220;-80
2022/08/07 12:34:58;;;;;;;3.90;2.55;;;27.30;77.10;;;;;;5063017;28;20196;-77
2022/08/07 12:37:28;;;;;;;2.67;2.42;;;27.40;76.60;;;;;;5066583;28;20215;-77
2022/08/07 12:40:21;;;;;;;2.80;2.30;;;27.60;76.50;;;;;;5064267;28;20576;-79
2022/08/07 12:43:10;;;;;;;2.90;2.60;;;27.60;76.10;;;;;;5061746;28;20281;-77
2022/08/07 12:46:15;;;;;;;11.43;3.05;;;27.80;75.60;;;;;;5063378;28;20220;-78
2022/08/07 12:49:06;;;;;;;8.48;2.75;;;27.80;75.60;;;;;;5066490;28;20228;-74
2022/08/07 12:52:10;;;;;;;4.10;2.63;;;27.80;76.90;;;;;;5066571;28;20205;-77
2022/08/07 12:54:59;;;;;;;3.30;2.20;;;27.80;77.60;;;;;;5064804;28;20291;-75
2022/08/07 12:57:34;;;;;;;3.08;2.35;;;27.80;77.40;;;;;;5062878;28;20283;-75
2022/08/07 13:00:30;;;;;;;4.95;2.55;;;27.60;77.20;;;;;;5065718;28;20706;-76
2022/08/07 13:03:30;;;;;;;2.25;2.05;;;27.40;76.80;;;;;;5063195;28;20221;-76
2022/08/07 13:06:42;;;;;;;2.92;2.42;;;27.20;78.10;;;;;;5067535;28;20800;-75
2022/08/07 13:09:38;;;;;;;3.05;2.30;;;27.10;78.10;;;;;;5063619;28;20880;-77
2022/08/07 13:12:37;;;;;;;2.63;2.40;;;27.00;78.70;;;;;;5066198;28;20262;-76
2022/08/07 13:15:25;;;;;;;3.67;2.20;;;27.10;78.00;;;;;;5066188;28;20228;-78
2022/08/07 13:18:23;;;;;;;3.30;1.80;;;27.40;77.80;;;;;;5063338;28;20220;-76
2022/08/07 13:21:27;;;;;;;2.70;2.03;;;27.70;75.50;;;;;;5063553;28;20200;-79
2022/08/07 13:24:53;;;;;;;2.20;2.00;;;27.90;76.40;;;;;;5060715;28;20399;-78
2022/08/07 13:27:39;;;;;;;3.13;1.70;;;28.20;74.60;;;;;;5050295;28;20236;-77
2022/08/07 13:30:28;;;;;;;3.42;1.90;;;28.40;73.50;;;;;;5064820;28;20208;-75
2022/08/07 13:33:18;;;;;;;2.83;1.90;;;28.50;73.40;;;;;;5062366;28;20231;-74
2022/08/07 13:36:11;;;;;;;3.42;1.92;;;28.70;73.30;;;;;;5063848;28;20635;-74
2022/08/07 13:39:15;;;;;;;3.15;1.92;;;28.70;73.10;;;;;;5060161;28;20215;-77
2022/08/07 13:42:04;;;;;;;2.20;1.88;;;28.90;72.50;;;;;;5063955;28;20296;-76
2022/08/07 13:44:35;;;;;;;2.50;2.00;;;29.00;72.30;;;;;;5062384;28;20700;-75
2022/08/07 13:47:05;;;;;;;2.40;1.80;;;29.20;72.00;;;;;;5061406;28;20638;-75
2022/08/07 13:49:42;;;;;;;1.88;1.65;;;29.20;71.00;;;;;;5063027;28;20273;-75
2022/08/07 13:52:32;;;;;;;2.25;2.03;;;29.20;71.60;;;;;;5062893;28;20196;-75
2022/08/07 13:55:15;;;;;;;2.78;2.10;;;29.00;70.80;;;;;;5064025;28;20208;-77
2022/08/07 14:01:09;;;;;;;2.72;1.80;;;28.50;70.30;;;;;;5061477;28;20238;-76
2022/08/07 14:03:39;;;;;;;5.30;2.67;;;28.30;70.50;;;;;;5065060;28;20219;-77
2022/08/07 14:06:37;;;;;;;3.03;2.33;;;28.10;72.20;;;;;;5060333;28;21997;-77
2022/08/07 14:09:08;;;;;;;2.10;1.90;;;27.70;74.50;;;;;;5058330;28;20193;-77
2022/08/07 14:11:49;;;;;;;3.30;2.40;;;27.60;75.60;;;;;;5063380;28;20210;-80